Time;durP1;ratioP1;P1;durP2;ratioP2;P2;SDS_P1;SDS_P2;PMS_P1;PMS_P2;Temp;Humidity;BMP_temperature;BMP_pressure;BME280_temperature;BME280_humidity;BME280_pressure;Samples;Min_cycle;Max_cycle;Signal;HPM_P1;HPM_P2
2023/11/23 00:00:10;;;;;;;21.30;14.98;;;8.70;99.90;;;;;;5058163;28;20032;-87
2023/11/23 00:02:36;;;;;;;21.55;14.35;;;8.80;99.90;;;;;;5042357;28;20029;-87
2023/11/23 00:05:02;;;;;;;23.30;15.05;;;8.80;99.90;;;;;;5058084;28;20431;-88
2023/11/23 00:07:27;;;;;;;21.52;15.30;;;8.80;99.90;;;;;;5057760;28;20127;-83
2023/11/23 00:09:53;;;;;;;23.95;15.65;;;8.80;99.90;;;;;;5041983;28;20039;-87
2023/11/23 00:12:19;;;;;;;22.77;15.85;;;8.80;99.90;;;;;;5058032;28;20067;-87
2023/11/23 00:14:45;;;;;;;23.05;15.73;;;8.80;99.90;;;;;;5075716;28;20029;-87
2023/11/23 00:17:10;;;;;;;22.42;16.05;;;8.90;99.90;;;;;;5058024;28;20422;-86
2023/11/23 00:19:36;;;;;;;30.30;17.08;;;8.90;99.90;;;;;;5057884;28;20472;-87
2023/11/23 00:22:02;;;;;;;20.38;15.02;;;8.90;99.90;;;;;;5041076;28;20025;-87
2023/11/23 00:24:27;;;;;;;24.20;16.55;;;8.90;99.90;;;;;;5075786;28;20425;-87
2023/11/23 00:26:53;;;;;;;21.35;16.63;;;8.90;99.90;;;;;;5040751;28;20400;-88
2023/11/23 00:29:20;;;;;;;21.98;15.30;;;8.90;99.90;;;;;;5057702;28;20060;-87
2023/11/23 00:31:46;;;;;;;21.90;14.88;;;8.90;99.90;;;;;;5057753;28;20075;-87
2023/11/23 00:34:12;;;;;;;21.98;14.77;;;8.90;99.90;;;;;;5040609;28;20055;-87
2023/11/23 00:36:37;;;;;;;21.10;15.38;;;8.90;99.90;;;;;;5075410;28;20028;-87
2023/11/23 00:39:04;;;;;;;25.63;16.50;;;9.00;99.90;;;;;;5024516;28;20030;-86
2023/11/23 00:41:30;;;;;;;21.08;16.35;;;9.00;99.90;;;;;;5057781;28;20032;-87
2023/11/23 00:43:57;;;;;;;21.83;15.95;;;9.00;99.90;;;;;;5040582;28;20032;-86
2023/11/23 00:46:23;;;;;;;21.63;15.88;;;9.00;99.90;;;;;;5041146;28;20123;-87
2023/11/23 00:48:48;;;;;;;24.30;17.00;;;9.00;99.90;;;;;;5057585;28;20036;-87
2023/11/23 00:51:15;;;;;;;22.42;16.38;;;9.00;99.90;;;;;;5057481;28;20032;-86
2023/11/23 00:53:41;;;;;;;23.65;16.45;;;9.00;99.90;;;;;;5075130;28;20479;-88
2023/11/23 00:56:07;;;;;;;21.45;15.85;;;9.00;99.90;;;;;;5041299;28;20025;-87
2023/11/23 00:58:33;;;;;;;25.52;17.33;;;9.10;99.90;;;;;;5057437;28;20361;-87
2023/11/23 01:00:58;;;;;;;21.38;16.85;;;9.10;99.90;;;;;;5057663;28;20472;-87
2023/11/23 01:03:24;;;;;;;24.80;17.80;;;9.10;99.90;;;;;;5075111;28;20112;-87
2023/11/23 01:05:50;;;;;;;20.70;16.05;;;9.10;99.90;;;;;;5057766;28;20131;-87
2023/11/23 01:08:16;;;;;;;18.83;15.02;;;9.10;99.90;;;;;;5040591;28;20049;-87
2023/11/23 01:10:42;;;;;;;21.27;14.77;;;9.10;99.90;;;;;;5081139;28;20023;-84
2023/11/23 01:13:08;;;;;;;22.08;15.15;;;9.10;99.90;;;;;;5081684;28;20024;-86
2023/11/23 01:15:33;;;;;;;22.35;15.80;;;9.20;99.90;;;;;;5098935;28;20029;-87
2023/11/23 01:17:59;;;;;;;25.95;16.05;;;9.20;99.90;;;;;;5080302;28;20415;-87
2023/11/23 01:20:25;;;;;;;22.38;16.50;;;9.20;99.90;;;;;;5057638;28;20109;-87
2023/11/23 01:22:51;;;;;;;25.52;17.65;;;9.20;99.90;;;;;;5024023;28;20029;-87
2023/11/23 01:25:18;;;;;;;20.90;15.35;;;9.20;99.90;;;;;;5040452;28;20028;-87
2023/11/23 01:27:44;;;;;;;22.58;15.50;;;9.20;99.90;;;;;;5056418;28;20098;-87
2023/11/23 01:30:10;;;;;;;18.58;15.45;;;9.20;99.90;;;;;;5057091;28;20032;-87
2023/11/23 01:32:36;;;;;;;20.40;15.07;;;9.20;99.90;;;;;;5057109;28;20048;-87
2023/11/23 01:35:04;;;;;;;22.83;16.13;;;9.20;99.90;;;;;;5074605;28;20107;-87
2023/11/23 01:37:30;;;;;;;19.98;14.82;;;9.30;99.90;;;;;;5040007;28;20024;-87
2023/11/23 01:39:56;;;;;;;20.13;14.68;;;9.30;99.90;;;;;;5040068;28;20111;-87
2023/11/23 01:42:22;;;;;;;22.70;16.02;;;9.30;99.90;;;;;;5074532;28;20091;-87
2023/11/23 01:44:48;;;;;;;21.60;14.32;;;9.30;99.90;;;;;;5023263;28;20028;-87
2023/11/23 01:47:15;;;;;;;22.85;15.77;;;9.30;99.90;;;;;;5056759;28;20488;-87
2023/11/23 01:49:43;;;;;;;21.42;15.07;;;9.30;99.90;;;;;;5023521;28;20036;-85
2023/11/23 01:52:09;;;;;;;20.02;14.63;;;9.30;99.90;;;;;;5074278;28;20099;-86
2023/11/23 01:54:35;;;;;;;17.52;13.70;;;9.40;99.90;;;;;;5040005;28;20033;-88
2023/11/23 01:57:02;;;;;;;18.45;14.32;;;9.40;99.90;;;;;;5039521;28;20033;-87
2023/11/23 01:59:29;;;;;;;21.33;15.82;;;9.40;99.90;;;;;;5056435;28;20109;-87
2023/11/23 02:01:55;;;;;;;18.90;14.90;;;9.50;99.90;;;;;;5055770;28;20578;-87
2023/11/23 02:04:21;;;;;;;20.17;14.25;;;9.50;99.90;;;;;;5039953;28;20123;-87
2023/11/23 02:06:46;;;;;;;21.15;15.00;;;9.50;99.90;;;;;;5039082;28;20052;-86
2023/11/23 02:09:13;;;;;;;20.38;14.80;;;9.50;99.90;;;;;;5056671;28;20036;-86
2023/11/23 02:11:39;;;;;;;18.00;13.73;;;9.50;99.90;;;;;;5074012;28;20029;-87
2023/11/23 02:14:06;;;;;;;20.38;15.20;;;9.50;99.90;;;;;;5039353;28;20032;-88
2023/11/23 02:16:37;;;;;;;23.20;15.48;;;9.60;99.90;;;;;;5074034;28;20028;-88
2023/11/23 02:19:04;;;;;;;22.27;14.63;;;9.60;99.90;;;;;;5056741;28;20572;-87
2023/11/23 02:21:30;;;;;;;20.77;14.95;;;9.60;99.90;;;;;;5039490;28;20054;-85
2023/11/23 02:23:56;;;;;;;24.42;15.93;;;9.60;99.90;;;;;;5055808;28;20031;-87
2023/11/23 02:26:21;;;;;;;18.17;14.40;;;9.60;99.90;;;;;;5056134;28;20392;-87
2023/11/23 02:28:47;;;;;;;21.13;14.65;;;9.70;99.90;;;;;;5038887;28;20029;-87
2023/11/23 02:31:13;;;;;;;16.33;13.60;;;9.60;99.90;;;;;;5039249;28;20020;-87
2023/11/23 02:33:39;;;;;;;16.95;13.20;;;9.70;99.90;;;;;;5057017;28;20490;-87
2023/11/23 02:36:05;;;;;;;15.88;12.70;;;9.70;99.90;;;;;;5056870;28;20151;-87
2023/11/23 02:38:31;;;;;;;17.52;13.90;;;9.70;99.90;;;;;;5074547;28;20016;-84
2023/11/23 02:41:00;;;;;;;18.02;13.77;;;9.70;99.90;;;;;;5096907;28;20012;-86
2023/11/23 02:43:25;;;;;;;17.40;14.00;;;9.70;99.90;;;;;;5081089;28;20004;-87
2023/11/23 02:45:54;;;;;;;18.40;13.35;;;9.80;99.90;;;;;;5097310;28;20096;-86
2023/11/23 02:48:19;;;;;;;16.85;12.38;;;9.80;99.90;;;;;;5056511;28;20028;-87
2023/11/23 02:50:45;;;;;;;16.52;12.75;;;9.80;99.90;;;;;;5058164;28;20033;-87
2023/11/23 02:53:27;;;;;;;15.15;12.57;;;9.80;99.90;;;;;;5043087;28;20036;-87
2023/11/23 02:55:53;;;;;;;20.45;12.98;;;9.80;99.90;;;;;;5062242;28;20033;-88
2023/11/23 02:58:19;;;;;;;15.93;12.93;;;9.80;99.90;;;;;;5077404;28;20108;-87
2023/11/23 03:00:45;;;;;;;21.23;14.15;;;9.90;99.90;;;;;;5026672;28;20044;-87
2023/11/23 03:03:12;;;;;;;17.15;13.35;;;9.90;99.90;;;;;;5059828;28;20021;-87
2023/11/23 03:05:39;;;;;;;17.17;13.65;;;9.90;99.90;;;;;;5043093;28;20059;-87
2023/11/23 03:08:04;;;;;;;16.67;12.98;;;9.90;99.90;;;;;;5059014;28;20060;-88
2023/11/23 03:10:30;;;;;;;16.77;12.45;;;9.90;99.90;;;;;;5059681;28;20380;-87
2023/11/23 03:12:56;;;;;;;15.50;13.80;;;9.90;99.90;;;;;;5059388;28;20032;-88
2023/11/23 03:15:22;;;;;;;19.13;14.05;;;9.90;99.90;;;;;;5042601;28;20032;-88
2023/11/23 03:17:48;;;;;;;16.58;12.88;;;10.00;99.90;;;;;;5042859;28;20029;-88
2023/11/23 03:20:13;;;;;;;13.70;11.18;;;10.00;99.90;;;;;;5042497;28;20531;-88
2023/11/23 03:22:39;;;;;;;16.23;12.15;;;10.00;99.90;;;;;;5042944;28;20025;-87
2023/11/23 03:25:09;;;;;;;15.15;11.55;;;10.00;99.90;;;;;;5059429;28;20032;-86
2023/11/23 03:27:36;;;;;;;16.17;11.82;;;10.00;99.90;;;;;;5077544;28;20482;-87
2023/11/23 03:30:04;;;;;;;15.02;11.18;;;10.10;99.90;;;;;;5043025;28;20028;-88
2023/11/23 03:32:32;;;;;;;15.52;11.85;;;10.10;99.90;;;;;;5077304;28;20021;-87
2023/11/23 03:34:58;;;;;;;14.85;11.18;;;10.10;99.90;;;;;;5043014;28;20029;-89
2023/11/23 03:37:24;;;;;;;13.32;10.70;;;10.20;99.90;;;;;;5059443;28;20115;-87
2023/11/23 03:39:49;;;;;;;15.30;11.80;;;10.20;99.90;;;;;;5025789;28;20059;-87
2023/11/23 03:42:15;;;;;;;15.32;11.05;;;10.20;99.90;;;;;;5059176;28;20029;-87
2023/11/23 03:44:41;;;;;;;14.23;11.50;;;10.20;99.90;;;;;;5059112;28;20020;-87
2023/11/23 03:47:06;;;;;;;17.95;12.40;;;10.20;99.90;;;;;;5025725;28;20373;-87
2023/11/23 03:49:32;;;;;;;13.63;11.15;;;10.30;99.90;;;;;;5025770;28;20124;-87
2023/11/23 03:51:58;;;;;;;14.98;11.07;;;10.20;99.90;;;;;;5076227;28;20103;-87
2023/11/23 03:54:23;;;;;;;15.55;10.98;;;10.20;99.90;;;;;;5058896;28;20036;-88
2023/11/23 03:56:49;;;;;;;16.27;12.13;;;10.20;99.90;;;;;;5058379;28;20032;-87
2023/11/23 03:59:15;;;;;;;16.23;11.80;;;10.30;99.90;;;;;;5058880;28;20185;-88
2023/11/23 04:01:45;;;;;;;15.55;12.10;;;10.20;99.90;;;;;;5058373;28;20039;-86
2023/11/23 04:04:11;;;;;;;17.58;11.27;;;10.20;99.90;;;;;;5061722;28;20166;-87
2023/11/23 04:06:37;;;;;;;17.00;11.60;;;10.30;99.90;;;;;;5054725;28;20033;-87
2023/11/23 04:09:03;;;;;;;16.58;11.85;;;10.30;99.90;;;;;;5070660;28;20023;-87
2023/11/23 04:11:28;;;;;;;13.85;11.88;;;10.30;99.90;;;;;;5066054;28;20020;-87
2023/11/23 04:13:54;;;;;;;15.57;11.25;;;10.30;99.90;;;;;;5065716;28;20024;-87
2023/11/23 04:16:20;;;;;;;18.15;11.52;;;10.30;99.90;;;;;;5065635;28;20009;-86
2023/11/23 04:18:47;;;;;;;13.60;10.85;;;10.30;99.90;;;;;;5053448;28;20054;-88
2023/11/23 04:21:13;;;;;;;15.05;9.90;;;10.40;99.90;;;;;;5058768;28;20025;-88
2023/11/23 04:23:39;;;;;;;14.40;11.45;;;10.40;99.90;;;;;;5042075;28;20016;-87
2023/11/23 04:26:05;;;;;;;16.40;11.93;;;10.40;99.90;;;;;;5041360;28;20036;-88
2023/11/23 04:28:30;;;;;;;14.65;10.95;;;10.40;99.90;;;;;;5058280;28;20029;-87
2023/11/23 04:30:56;;;;;;;13.25;10.70;;;10.40;99.90;;;;;;5058311;28;20033;-87
2023/11/23 04:33:22;;;;;;;13.52;10.63;;;10.50;99.90;;;;;;5075313;28;20012;-87
2023/11/23 04:35:48;;;;;;;15.32;10.68;;;10.50;99.90;;;;;;5057995;28;20078;-87
2023/11/23 04:38:14;;;;;;;11.98;9.30;;;10.50;99.90;;;;;;5041423;28;20135;-87
2023/11/23 04:40:40;;;;;;;12.98;11.07;;;10.50;99.90;;;;;;5042494;28;20472;-87
2023/11/23 04:43:05;;;;;;;14.27;10.02;;;10.50;99.90;;;;;;5059398;28;20141;-87
2023/11/23 04:45:31;;;;;;;14.15;10.13;;;10.50;99.90;;;;;;5058814;28;20031;-87
2023/11/23 04:47:57;;;;;;;15.65;10.18;;;10.50;99.90;;;;;;5032784;28;20119;-87
2023/11/23 04:50:23;;;;;;;14.50;10.32;;;10.50;99.90;;;;;;5097563;28;20024;-86
2023/11/23 04:52:48;;;;;;;13.75;10.40;;;10.50;99.90;;;;;;5076251;28;20052;-87
2023/11/23 04:55:14;;;;;;;11.52;9.85;;;10.50;99.90;;;;;;5034731;28;20035;-87
2023/11/23 04:57:39;;;;;;;13.10;8.93;;;10.50;99.90;;;;;;5061145;28;20024;-88
2023/11/23 05:00:06;;;;;;;14.70;10.55;;;10.50;99.90;;;;;;5075798;28;20034;-87
2023/11/23 05:02:32;;;;;;;11.93;9.70;;;10.60;99.90;;;;;;5057583;28;20016;-87
2023/11/23 05:04:57;;;;;;;11.43;8.88;;;10.60;99.90;;;;;;5041267;28;20081;-87
2023/11/23 05:07:25;;;;;;;11.90;8.40;;;10.50;99.90;;;;;;5040757;28;20492;-87
2023/11/23 05:09:52;;;;;;;10.77;8.52;;;10.60;99.90;;;;;;5074933;28;20055;-89
2023/11/23 05:12:17;;;;;;;11.88;9.60;;;10.60;99.90;;;;;;5056756;28;20028;-88
2023/11/23 05:14:43;;;;;;;13.80;9.43;;;10.60;99.90;;;;;;5056727;28;20123;-87
2023/11/23 05:17:09;;;;;;;11.35;9.13;;;10.60;99.90;;;;;;5056883;28;20456;-87
2023/11/23 05:19:35;;;;;;;11.77;9.23;;;10.60;99.90;;;;;;5040237;28;20078;-88
2023/11/23 05:22:02;;;;;;;12.73;9.05;;;10.60;99.90;;;;;;5040656;28;20024;-87
2023/11/23 05:24:27;;;;;;;13.30;10.30;;;10.60;99.90;;;;;;5056978;28;20039;-87
2023/11/23 05:26:54;;;;;;;15.05;9.60;;;10.60;99.90;;;;;;5056804;28;20477;-86
2023/11/23 05:29:21;;;;;;;13.10;9.05;;;10.60;99.90;;;;;;5039770;28;20068;-88
2023/11/23 05:31:46;;;;;;;10.55;8.10;;;10.60;99.90;;;;;;5056697;28;20029;-88
2023/11/23 05:34:12;;;;;;;11.02;8.25;;;10.60;99.90;;;;;;5057138;28;20028;-88
2023/11/23 05:36:38;;;;;;;12.65;8.38;;;10.60;99.90;;;;;;5057466;28;20155;-87
2023/11/23 05:39:04;;;;;;;12.55;9.20;;;10.60;99.90;;;;;;5040717;28;20086;-86
2023/11/23 05:41:29;;;;;;;14.10;8.30;;;10.60;99.90;;;;;;5039720;28;20056;-88
2023/11/23 05:43:55;;;;;;;10.90;8.00;;;10.60;99.90;;;;;;5068618;28;20015;-88
2023/11/23 05:46:21;;;;;;;13.43;8.32;;;10.60;99.90;;;;;;5063573;28;20043;-85
2023/11/23 05:48:47;;;;;;;9.98;7.97;;;10.60;99.90;;;;;;5063788;28;20025;-86
2023/11/23 05:51:13;;;;;;;16.92;9.70;;;10.60;99.90;;;;;;5043968;28;20158;-86
2023/11/23 05:53:39;;;;;;;10.25;7.75;;;10.60;99.90;;;;;;5057037;28;20067;-87
2023/11/23 05:56:05;;;;;;;14.57;8.43;;;10.60;99.90;;;;;;5039745;28;20090;-86
2023/11/23 05:58:31;;;;;;;10.77;8.27;;;10.60;99.90;;;;;;5055691;28;20352;-88
2023/11/23 06:00:56;;;;;;;12.48;9.23;;;10.60;99.90;;;;;;5039765;28;20082;-88
2023/11/23 06:03:22;;;;;;;16.52;10.77;;;10.60;99.90;;;;;;5023049;28;20024;-88
2023/11/23 06:05:48;;;;;;;14.90;9.80;;;10.60;99.90;;;;;;5039497;28;20445;-88
2023/11/23 06:08:14;;;;;;;14.25;9.50;;;10.60;99.90;;;;;;5019739;28;20408;-87
2023/11/23 06:10:40;;;;;;;11.85;9.73;;;10.60;99.90;;;;;;5052524;28;20045;-88
2023/11/23 06:13:05;;;;;;;13.50;10.45;;;10.60;99.90;;;;;;5052656;28;20124;-87
2023/11/23 06:15:31;;;;;;;14.00;10.48;;;10.60;99.90;;;;;;5035766;28;20056;-87
2023/11/23 06:17:57;;;;;;;12.95;9.90;;;10.60;99.90;;;;;;5053005;28;20035;-90
2023/11/23 06:20:23;;;;;;;18.42;11.43;;;10.60;99.90;;;;;;5054132;28;20473;-88
2023/11/23 06:22:48;;;;;;;13.30;10.77;;;10.60;99.90;;;;;;5051875;28;20021;-87
2023/11/23 06:25:15;;;;;;;15.15;10.98;;;10.60;99.90;;;;;;5038375;28;20427;-88
2023/11/23 06:27:41;;;;;;;15.95;11.40;;;10.60;99.90;;;;;;5058150;28;20106;-86
2023/11/23 06:30:07;;;;;;;12.65;10.18;;;10.60;99.90;;;;;;5056044;28;20072;-87
2023/11/23 06:32:32;;;;;;;15.43;11.07;;;10.70;99.90;;;;;;5039301;28;20047;-86
2023/11/23 06:34:58;;;;;;;15.77;10.57;;;10.70;99.90;;;;;;5056272;28;20029;-86
2023/11/23 06:37:24;;;;;;;15.60;11.02;;;10.70;99.90;;;;;;5057092;28;20057;-86
2023/11/23 06:39:52;;;;;;;17.88;11.60;;;10.70;99.90;;;;;;5039748;28;20032;-87
2023/11/23 06:42:19;;;;;;;12.57;9.55;;;10.70;99.90;;;;;;5056398;28;20025;-87
2023/11/23 06:44:45;;;;;;;13.77;10.75;;;10.70;99.90;;;;;;5039696;28;20021;-87
2023/11/23 06:47:11;;;;;;;16.13;11.48;;;10.70;99.90;;;;;;5039553;28;20114;-88
2023/11/23 06:49:37;;;;;;;15.38;10.32;;;10.70;99.90;;;;;;5039938;28;20380;-87
2023/11/23 06:52:03;;;;;;;12.35;10.15;;;10.80;99.90;;;;;;5055770;28;20025;-87
2023/11/23 06:54:29;;;;;;;12.13;10.27;;;10.80;99.90;;;;;;5056329;28;20587;-87
2023/11/23 06:56:57;;;;;;;12.13;9.18;;;10.80;99.90;;;;;;5039597;28;20052;-87
2023/11/23 06:59:22;;;;;;;14.00;8.88;;;10.80;99.90;;;;;;5056038;28;20033;-87
2023/11/23 07:01:48;;;;;;;12.10;9.15;;;10.80;99.90;;;;;;5057279;28;20025;-86
2023/11/23 07:04:14;;;;;;;13.82;8.98;;;10.80;99.90;;;;;;5039654;28;20082;-87
2023/11/23 07:06:40;;;;;;;14.05;9.52;;;10.80;99.90;;;;;;5041590;28;20380;-88
2023/11/23 07:09:06;;;;;;;13.32;9.32;;;10.80;99.90;;;;;;5043479;28;20028;-87
2023/11/23 07:11:33;;;;;;;12.75;9.30;;;10.80;99.90;;;;;;5026787;28;20376;-87
2023/11/23 07:14:00;;;;;;;13.73;8.55;;;10.80;99.90;;;;;;5079632;28;20039;-86
2023/11/23 07:16:27;;;;;;;14.57;9.68;;;10.80;99.90;;;;;;5083502;28;20035;-85
2023/11/23 07:18:52;;;;;;;13.75;8.82;;;10.80;99.90;;;;;;5067063;28;20037;-88
2023/11/23 07:21:18;;;;;;;12.48;8.75;;;10.80;99.90;;;;;;5066755;28;20009;-87
2023/11/23 07:23:44;;;;;;;12.10;8.48;;;10.80;99.90;;;;;;5047429;28;20064;-88
2023/11/23 07:26:11;;;;;;;12.95;8.20;;;10.80;99.90;;;;;;5059476;28;20063;-87
2023/11/23 07:28:37;;;;;;;12.57;7.72;;;10.90;99.90;;;;;;5042600;28;20479;-87
2023/11/23 07:31:03;;;;;;;10.50;7.78;;;10.90;99.90;;;;;;5058985;28;20036;-87
2023/11/23 07:33:34;;;;;;;10.48;7.78;;;10.90;99.90;;;;;;5076297;28;20032;-86
2023/11/23 07:36:04;;;;;;;15.07;8.45;;;10.90;99.90;;;;;;5041933;28;20119;-86
2023/11/23 07:38:30;;;;;;;10.85;7.90;;;10.90;99.90;;;;;;5058371;28;20024;-87
2023/11/23 07:40:57;;;;;;;10.50;8.27;;;10.90;99.90;;;;;;5058536;28;20020;-86
2023/11/23 07:43:23;;;;;;;12.65;8.20;;;10.90;99.90;;;;;;5058925;28;20054;-89
2023/11/23 07:45:50;;;;;;;12.70;8.80;;;10.90;99.90;;;;;;5058798;28;20033;-86
2023/11/23 07:48:16;;;;;;;13.25;7.93;;;10.90;99.90;;;;;;5042036;28;20029;-86
2023/11/23 07:50:43;;;;;;;12.75;8.55;;;10.90;99.90;;;;;;5058094;28;20086;-86
2023/11/23 07:53:09;;;;;;;13.95;8.32;;;10.90;99.90;;;;;;5075986;28;20032;-86
2023/11/23 07:55:34;;;;;;;9.57;7.18;;;10.90;99.90;;;;;;5076142;28;20064;-87
2023/11/23 07:58:03;;;;;;;14.43;8.70;;;10.90;99.90;;;;;;5058131;28;20021;-86
2023/11/23 08:00:29;;;;;;;12.65;6.97;;;10.90;99.90;;;;;;5057695;28;20040;-86
2023/11/23 08:02:54;;;;;;;10.63;7.40;;;10.90;99.90;;;;;;5058076;28;20036;-86
2023/11/23 08:05:20;;;;;;;13.13;7.80;;;10.90;99.90;;;;;;5057807;28;20070;-86
2023/11/23 08:07:47;;;;;;;9.38;7.80;;;10.90;99.90;;;;;;5057827;28;20056;-86
2023/11/23 08:10:15;;;;;;;13.85;8.23;;;11.00;99.90;;;;;;5076708;28;20028;-87
2023/11/23 08:12:42;;;;;;;11.30;7.63;;;11.00;99.90;;;;;;5058184;28;20456;-86
2023/11/23 08:15:09;;;;;;;9.93;7.25;;;11.00;99.90;;;;;;5076092;28;20063;-87
2023/11/23 08:17:36;;;;;;;13.10;8.23;;;11.00;99.90;;;;;;5057584;28;20024;-89
2023/11/23 08:20:08;;;;;;;10.05;7.25;;;11.10;99.90;;;;;;5057917;28;20040;-87
2023/11/23 08:22:35;;;;;;;10.68;7.50;;;11.10;99.90;;;;;;5057641;28;20433;-86
2023/11/23 08:25:00;;;;;;;10.75;7.65;;;11.10;99.90;;;;;;5057921;28;20047;-82
2023/11/23 08:27:26;;;;;;;13.07;8.13;;;11.10;99.90;;;;;;5075113;28;20395;-83
2023/11/23 08:29:52;;;;;;;14.35;8.77;;;11.10;99.90;;;;;;5056889;28;20444;-83
2023/11/23 08:32:18;;;;;;;12.15;7.80;;;11.10;99.90;;;;;;5040483;28;20046;-83
2023/11/23 08:34:43;;;;;;;13.27;8.25;;;11.10;99.90;;;;;;5057539;28;20020;-83
2023/11/23 08:37:09;;;;;;;15.93;7.90;;;11.10;99.90;;;;;;5041446;28;20430;-83
2023/11/23 08:39:35;;;;;;;10.75;7.70;;;11.10;99.90;;;;;;5057190;28;20391;-84
2023/11/23 08:42:01;;;;;;;15.65;7.55;;;11.10;99.90;;;;;;5057853;28;20028;-83
2023/11/23 08:44:26;;;;;;;10.20;7.32;;;11.10;99.90;;;;;;5057895;28;20111;-83
2023/11/23 08:46:52;;;;;;;10.63;7.65;;;11.20;99.90;;;;;;5075432;28;20044;-83
2023/11/23 08:49:19;;;;;;;10.38;7.40;;;11.20;99.90;;;;;;5048271;28;20024;-84
2023/11/23 08:51:44;;;;;;;10.80;7.05;;;11.20;99.90;;;;;;5081840;28;20024;-84
2023/11/23 08:54:10;;;;;;;12.13;8.30;;;11.20;99.90;;;;;;5064962;28;20080;-81
2023/11/23 08:56:36;;;;;;;9.38;7.15;;;11.20;99.90;;;;;;5043144;28;20033;-90
2023/11/23 08:59:02;;;;;;;9.30;7.43;;;11.20;99.90;;;;;;5077296;28;20024;-90
2023/11/23 09:01:28;;;;;;;8.93;6.70;;;11.20;99.90;;;;;;5043511;28;20024;-91
2023/11/23 09:03:55;;;;;;;12.85;7.47;;;11.20;99.90;;;;;;5060509;28;20036;-87
2023/11/23 09:06:24;;;;;;;11.93;7.75;;;11.30;99.90;;;;;;5062435;28;20484;-87
2023/11/23 09:08:49;;;;;;;12.55;6.85;;;11.30;99.90;;;;;;5043681;28;20044;-87
2023/11/23 09:11:15;;;;;;;9.20;7.05;;;11.30;99.90;;;;;;5058945;28;20047;-87
2023/11/23 09:13:43;;;;;;;11.73;8.43;;;11.30;99.90;;;;;;5058353;28;20021;-86
2023/11/23 09:16:11;;;;;;;11.65;7.15;;;11.30;99.90;;;;;;5076075;28;20008;-86
2023/11/23 09:18:37;;;;;;;11.38;8.00;;;11.30;99.90;;;;;;5069791;28;20029;-86
2023/11/23 09:21:03;;;;;;;10.52;7.55;;;11.30;99.90;;;;;;5075359;28;20079;-86
2023/11/23 09:23:29;;;;;;;14.02;8.32;;;11.40;99.90;;;;;;5075144;28;20104;-87
2023/11/23 09:25:54;;;;;;;10.20;7.57;;;11.40;99.90;;;;;;5056882;28;20119;-86
2023/11/23 09:28:22;;;;;;;8.55;6.38;;;11.40;99.90;;;;;;5023945;28;20055;-86
2023/11/23 09:30:48;;;;;;;9.73;6.53;;;11.40;99.90;;;;;;5074412;28;20032;-87
2023/11/23 09:33:13;;;;;;;10.85;7.55;;;11.40;99.90;;;;;;5040028;28;20051;-87
2023/11/23 09:35:39;;;;;;;10.13;7.32;;;11.40;99.90;;;;;;5039824;28;20418;-86
2023/11/23 09:38:06;;;;;;;10.40;6.88;;;11.50;99.90;;;;;;5040061;28;20481;-85
2023/11/23 09:40:36;;;;;;;8.68;6.50;;;11.50;99.90;;;;;;5056753;28;20036;-86
2023/11/23 09:43:01;;;;;;;10.77;6.57;;;11.50;99.90;;;;;;5056151;28;20047;-86
2023/11/23 09:45:29;;;;;;;10.98;7.03;;;11.60;99.90;;;;;;5056124;28;20064;-86
2023/11/23 09:47:56;;;;;;;8.88;6.28;;;11.60;99.90;;;;;;5055836;28;20074;-87
2023/11/23 09:50:22;;;;;;;13.95;7.80;;;11.60;99.90;;;;;;5056288;28;20028;-86
2023/11/23 09:52:49;;;;;;;8.77;6.53;;;11.60;99.90;;;;;;5039609;28;20025;-87
2023/11/23 09:55:17;;;;;;;8.43;6.10;;;11.70;99.90;;;;;;5056208;28;20035;-86
2023/11/23 09:57:44;;;;;;;9.57;5.93;;;11.70;99.90;;;;;;5056318;28;20074;-85
2023/11/23 10:00:14;;;;;;;10.25;5.90;;;11.70;99.90;;;;;;5073915;28;20021;-87
2023/11/23 10:02:42;;;;;;;11.25;6.28;;;11.70;99.90;;;;;;5074205;28;20367;-87
2023/11/23 10:05:11;;;;;;;7.30;6.10;;;11.80;99.90;;;;;;5056112;28;20024;-86
2023/11/23 10:07:37;;;;;;;9.90;5.97;;;11.80;99.90;;;;;;5055902;28;20396;-86
2023/11/23 10:10:07;;;;;;;6.60;4.95;;;11.80;99.90;;;;;;5055941;28;20078;-87
2023/11/23 10:12:33;;;;;;;8.70;5.25;;;11.80;99.90;;;;;;5056139;28;20038;-86
2023/11/23 10:14:59;;;;;;;9.85;5.22;;;11.80;99.90;;;;;;5039555;28;20028;-87
2023/11/23 10:17:24;;;;;;;9.55;5.43;;;11.80;99.90;;;;;;5056713;28;20032;-87
2023/11/23 10:19:50;;;;;;;7.10;4.88;;;11.90;99.90;;;;;;5072205;28;20035;-84
2023/11/23 10:22:16;;;;;;;10.07;5.32;;;11.90;99.90;;;;;;5080702;28;20023;-86
2023/11/23 10:24:50;;;;;;;8.90;5.30;;;11.90;99.90;;;;;;5064068;28;20013;-85
2023/11/23 10:27:18;;;;;;;8.15;5.05;;;11.90;99.90;;;;;;5080950;28;20020;-87
2023/11/23 10:29:46;;;;;;;8.95;5.10;;;11.90;99.90;;;;;;5046591;28;20037;-87
2023/11/23 10:32:15;;;;;;;7.50;5.40;;;12.00;99.90;;;;;;5040060;28;20021;-87
2023/11/23 10:34:41;;;;;;;11.85;5.70;;;12.00;99.90;;;;;;5073985;28;20020;-87
2023/11/23 10:37:12;;;;;;;8.00;5.32;;;12.10;99.90;;;;;;5073670;28;20025;-86
2023/11/23 10:39:38;;;;;;;5.82;4.72;;;12.00;99.90;;;;;;5056208;28;20447;-87
2023/11/23 10:42:04;;;;;;;8.65;4.63;;;12.10;99.90;;;;;;5055868;28;20064;-87
2023/11/23 10:44:33;;;;;;;5.78;4.38;;;12.10;99.90;;;;;;5022679;28;20048;-87
2023/11/23 10:47:03;;;;;;;9.70;5.25;;;12.10;99.90;;;;;;5055898;28;20039;-84
2023/11/23 10:49:36;;;;;;;8.95;4.68;;;12.10;99.90;;;;;;5055674;28;20372;-87
2023/11/23 10:52:03;;;;;;;9.82;5.18;;;12.10;99.90;;;;;;5039376;28;20029;-86
2023/11/23 10:54:29;;;;;;;6.63;4.40;;;12.10;99.90;;;;;;5073513;28;20048;-87
2023/11/23 10:56:59;;;;;;;5.95;3.83;;;12.10;99.90;;;;;;5073358;28;20079;-87
2023/11/23 10:59:28;;;;;;;7.13;4.10;;;12.20;99.90;;;;;;5055627;28;20029;-87
2023/11/23 11:01:56;;;;;;;8.30;4.60;;;12.20;99.90;;;;;;5055122;28;20040;-87
2023/11/23 11:04:22;;;;;;;8.57;4.43;;;12.20;99.90;;;;;;5055643;28;20379;-87
2023/11/23 11:06:54;;;;;;;7.53;4.55;;;12.20;99.90;;;;;;5055253;28;20462;-85
2023/11/23 11:09:26;;;;;;;7.32;4.18;;;12.20;99.90;;;;;;5073443;28;20028;-87
2023/11/23 11:11:56;;;;;;;8.45;4.60;;;12.20;99.90;;;;;;5057588;28;20025;-87
2023/11/23 11:14:35;;;;;;;6.57;3.70;;;12.30;99.90;;;;;;5042691;28;20037;-87
2023/11/23 11:17:07;;;;;;;8.95;4.47;;;12.40;99.90;;;;;;5076907;28;20029;-87
2023/11/23 11:19:45;;;;;;;8.23;4.50;;;12.40;99.90;;;;;;5076794;28;20020;-87
2023/11/23 11:22:14;;;;;;;9.80;4.40;;;12.40;99.90;;;;;;5058718;28;20047;-86
2023/11/23 11:24:40;;;;;;;9.13;4.25;;;12.40;99.90;;;;;;5059678;28;20043;-87
2023/11/23 11:27:12;;;;;;;7.57;4.60;;;12.40;99.90;;;;;;5076667;28;20166;-86
2023/11/23 11:29:47;;;;;;;7.22;3.75;;;12.40;99.90;;;;;;5043159;28;20029;-87
2023/11/23 11:32:15;;;;;;;8.95;4.45;;;12.40;99.90;;;;;;5059331;28;20103;-88
2023/11/23 11:34:40;;;;;;;9.57;4.05;;;12.40;99.90;;;;;;5077238;28;20024;-87
2023/11/23 11:37:07;;;;;;;8.63;4.78;;;12.40;99.90;;;;;;5077088;28;20029;-88
2023/11/23 11:39:39;;;;;;;7.20;3.75;;;12.40;99.90;;;;;;5042950;28;20055;-87
2023/11/23 11:42:06;;;;;;;8.02;4.15;;;12.50;99.90;;;;;;5026025;28;20032;-87
2023/11/23 11:44:34;;;;;;;7.43;3.83;;;12.40;99.90;;;;;;5058846;28;20439;-86
2023/11/23 11:47:00;;;;;;;8.07;3.85;;;12.40;99.90;;;;;;5058485;28;20391;-86
2023/11/23 11:49:26;;;;;;;5.70;3.42;;;12.40;99.90;;;;;;5042346;28;20031;-86
2023/11/23 11:51:52;;;;;;;11.60;4.47;;;12.40;99.90;;;;;;5042654;28;20056;-86
2023/11/23 11:54:22;;;;;;;8.07;3.63;;;12.40;99.90;;;;;;5067937;28;20016;-86
2023/11/23 11:56:52;;;;;;;7.75;3.05;;;12.40;99.90;;;;;;5082847;28;20027;-86
2023/11/23 11:59:20;;;;;;;7.47;3.88;;;12.40;99.90;;;;;;5083066;28;20019;-85
2023/11/23 12:01:49;;;;;;;7.15;3.47;;;12.50;99.90;;;;;;5083572;28;20028;-85
2023/11/23 12:04:19;;;;;;;7.35;2.90;;;12.50;99.90;;;;;;5091271;28;20040;-85
2023/11/23 12:06:45;;;;;;;7.97;3.17;;;12.50;99.90;;;;;;5058664;28;20051;-85
2023/11/23 12:09:14;;;;;;;8.18;3.65;;;12.50;99.90;;;;;;5058725;28;20029;-87
2023/11/23 12:11:40;;;;;;;5.03;2.72;;;12.50;99.90;;;;;;5058174;28;20029;-85
2023/11/23 12:14:08;;;;;;;7.55;3.08;;;12.50;99.90;;;;;;5057893;28;20029;-86
2023/11/23 12:16:35;;;;;;;6.00;2.50;;;12.50;99.90;;;;;;5075973;28;20025;-85
2023/11/23 12:19:00;;;;;;;7.38;2.70;;;12.50;99.90;;;;;;5041427;28;20107;-86
2023/11/23 12:21:28;;;;;;;6.22;2.75;;;12.50;99.90;;;;;;5075717;28;20056;-86
2023/11/23 12:23:54;;;;;;;5.35;2.83;;;12.60;99.90;;;;;;5075741;28;20029;-86
2023/11/23 12:26:20;;;;;;;5.55;2.75;;;12.60;99.90;;;;;;5041194;28;20028;-86
2023/11/23 12:28:47;;;;;;;6.45;2.47;;;12.60;99.90;;;;;;5041161;28;20029;-87
2023/11/23 12:31:13;;;;;;;7.70;2.85;;;12.60;99.90;;;;;;5057794;28;20021;-86
2023/11/23 12:33:38;;;;;;;5.18;2.60;;;12.60;99.90;;;;;;5041127;28;20043;-86